createdAt,value
2022-09-20T00:02:45.436Z,12.70
2022-09-20T00:06:49.088Z,12.64
2022-09-20T00:10:54.191Z,12.57
2022-09-20T00:14:58.941Z,12.53
2022-09-20T00:19:04.348Z,12.50
2022-09-20T00:23:07.985Z,12.47
2022-09-20T00:27:10.994Z,12.49
2022-09-20T00:31:17.289Z,12.49
2022-09-20T00:35:20.290Z,12.49
2022-09-20T00:39:23.827Z,12.48
2022-09-20T00:43:38.276Z,12.52
2022-09-20T00:47:47.212Z,12.54
2022-09-20T00:51:54.012Z,12.59
2022-09-20T00:56:02.289Z,12.64
2022-09-20T01:00:08.079Z,12.71
2022-09-20T01:04:15.499Z,12.74
2022-09-20T01:08:19.507Z,12.79
2022-09-20T01:12:26.097Z,12.84
2022-09-20T01:16:31.377Z,12.91
2022-09-20T01:20:39.449Z,12.97
2022-09-20T01:24:50.696Z,13.00
2022-09-20T01:29:03.054Z,13.03
2022-09-20T01:33:13.785Z,13.06
2022-09-20T01:37:26.050Z,13.06
2022-09-20T01:41:37.158Z,13.07
2022-09-20T01:45:47.094Z,13.08
2022-09-20T01:49:59.363Z,13.09
2022-09-20T01:54:45.172Z,13.10
2022-09-20T01:59:24.855Z,13.09
2022-09-20T02:03:53.258Z,13.09
2022-09-20T02:08:28.515Z,13.07
2022-09-20T02:12:52.162Z,13.06
2022-09-20T02:16:58.818Z,13.05
2022-09-20T02:21:11.501Z,13.06
2022-09-20T02:25:25.300Z,13.10
2022-09-20T02:29:35.841Z,13.11
2022-09-20T02:33:57.923Z,13.12
2022-09-20T02:38:17.857Z,13.14
2022-09-20T02:42:27.004Z,13.14
2022-09-20T02:46:35.292Z,13.12
2022-09-20T02:50:47.502Z,13.15
2022-09-20T02:55:00.008Z,13.15
2022-09-20T02:59:13.142Z,13.15
2022-09-20T03:03:25.716Z,13.12
2022-09-20T03:07:41.274Z,13.15
2022-09-20T03:11:54.859Z,13.13
2022-09-20T03:16:08.931Z,13.11
2022-09-20T03:20:25.744Z,13.08
2022-09-20T03:24:42.252Z,13.06
2022-09-20T03:28:58.959Z,13.03
2022-09-20T03:33:15.226Z,13.01
2022-09-20T03:37:35.168Z,12.96
2022-09-20T03:42:03.822Z,12.94
2022-09-20T03:46:19.371Z,12.94
2022-09-20T03:50:38.995Z,12.91
2022-09-20T03:55:21.475Z,12.91
2022-09-20T03:59:44.908Z,12.90
2022-09-20T04:03:55.398Z,12.90
2022-09-20T04:08:13.227Z,12.88
2022-09-20T04:12:27.642Z,12.89
2022-09-20T04:16:43.172Z,12.88
2022-09-20T04:20:52.160Z,12.90
2022-09-20T04:25:02.260Z,12.90
2022-09-20T04:29:21.327Z,12.90
2022-09-20T04:33:30.008Z,12.89
2022-09-20T04:37:38.546Z,12.88
2022-09-20T04:42:25.974Z,12.86
2022-09-20T04:46:55.892Z,12.85
2022-09-20T04:51:41.160Z,12.84
2022-09-20T04:56:02.482Z,12.85
2022-09-20T05:00:11.473Z,12.81
2022-09-20T05:04:38.878Z,12.82
2022-09-20T05:09:10.441Z,12.82
2022-09-20T05:13:28.798Z,12.81
2022-09-20T05:17:45.254Z,12.80
2022-09-20T05:22:07.290Z,12.77
2022-09-20T05:26:28.335Z,12.77
2022-09-20T05:30:39.205Z,12.76
2022-09-20T05:34:51.622Z,12.76
2022-09-20T05:39:03.592Z,12.76
2022-09-20T05:43:13.072Z,12.78
2022-09-20T05:47:23.874Z,12.80
2022-09-20T05:51:45.839Z,12.85
2022-09-20T05:56:02.130Z,12.94
2022-09-20T06:00:10.371Z,13.00
2022-09-20T06:04:21.420Z,13.08
2022-09-20T06:08:50.382Z,13.18
2022-09-20T06:12:59.945Z,13.30
2022-09-20T06:17:15.145Z,13.41
2022-09-20T06:21:32.454Z,13.56
2022-09-20T06:25:44.241Z,13.69
2022-09-20T06:29:57.540Z,13.81
2022-09-20T06:34:06.169Z,13.91
2022-09-20T06:38:42.302Z,13.97
2022-09-20T06:42:45.521Z,14.02
2022-09-20T06:46:49.576Z,14.04
2022-09-20T06:50:53.266Z,14.09
2022-09-20T06:54:58.099Z,14.15
2022-09-20T06:59:01.660Z,14.25
2022-09-20T07:03:05.162Z,14.40
2022-09-20T07:07:10.065Z,14.61
2022-09-20T07:11:17.648Z,14.78
2022-09-20T07:15:23.390Z,14.95
2022-09-20T07:19:26.576Z,15.08
2022-09-20T07:23:31.434Z,15.18
2022-09-20T07:27:36.768Z,15.21
2022-09-20T07:31:39.851Z,15.14
2022-09-20T07:35:43.545Z,15.04
2022-09-20T07:39:47.484Z,14.97
2022-09-20T07:43:52.854Z,15.00
2022-09-20T07:47:56.022Z,15.06
2022-09-20T07:52:00.278Z,15.16
2022-09-20T07:56:05.950Z,15.28
2022-09-20T08:00:13.029Z,15.38
2022-09-20T08:04:16.637Z,15.43
2022-09-20T08:08:20.657Z,15.48
2022-09-20T08:16:50.248Z,15.27
2022-09-20T08:20:53.345Z,14.97
2022-09-20T08:24:56.348Z,14.64
2022-09-20T08:29:01.751Z,14.35
2022-09-20T08:33:07.066Z,14.16
2022-09-20T08:37:10.566Z,14.06
2022-09-20T08:41:17.856Z,14.11
2022-09-20T08:45:34.474Z,14.37
2022-09-20T08:49:46.157Z,14.92
2022-09-20T08:53:52.915Z,15.59
2022-09-20T08:57:58.185Z,16.19
2022-09-20T09:02:01.966Z,16.62
2022-09-20T09:06:11.754Z,16.89
2022-09-20T09:10:17.531Z,17.01
2022-09-20T09:14:44.912Z,17.03
2022-09-20T09:18:49.406Z,17.08
2022-09-20T09:23:03.182Z,17.25
2022-09-20T09:27:10.845Z,17.50
2022-09-20T09:31:22.727Z,17.84
2022-09-20T09:35:30.115Z,18.29
2022-09-20T09:39:38.711Z,18.78
2022-09-20T09:43:42.199Z,19.16
2022-09-20T09:47:46.171Z,19.49
2022-09-20T09:52:06.104Z,19.90
2022-09-20T09:56:47.859Z,20.23
2022-09-20T10:00:54.051Z,20.24
2022-09-20T10:05:04.861Z,20.03
2022-09-20T10:09:24.999Z,19.65
2022-09-20T10:13:40.599Z,19.22
2022-09-20T10:17:58.180Z,18.88
2022-09-20T10:22:09.988Z,18.59
2022-09-20T10:26:27.742Z,18.26
2022-09-20T10:30:46.900Z,17.80
2022-09-20T10:35:14.809Z,17.29
2022-09-20T10:39:24.126Z,16.89
2022-09-20T10:43:40.818Z,16.72
2022-09-20T10:47:57.005Z,16.85
2022-09-20T10:52:35.899Z,17.31
2022-09-20T10:56:45.247Z,17.93
2022-09-20T11:00:56.789Z,18.56
2022-09-20T11:05:20.522Z,19.15
2022-09-20T11:09:29.026Z,19.74
2022-09-20T11:13:39.926Z,20.06
2022-09-20T11:17:46.866Z,20.08
2022-09-20T11:21:56.012Z,19.83
2022-09-20T11:26:06.897Z,19.63
2022-09-20T11:30:18.313Z,19.56
2022-09-20T11:34:28.904Z,19.75
2022-09-20T11:38:40.417Z,20.01
2022-09-20T11:42:44.835Z,20.09
2022-09-20T11:46:54.058Z,19.84
2022-09-20T11:51:30.058Z,19.39
2022-09-20T11:55:44.318Z,18.81
2022-09-20T11:59:53.217Z,18.27
2022-09-20T12:04:20.684Z,17.74
2022-09-20T12:08:27.263Z,17.40
2022-09-20T12:12:39.458Z,17.29
2022-09-20T12:16:44.553Z,17.41
2022-09-20T12:21:09.020Z,17.65
2022-09-20T12:25:39.100Z,17.97
2022-09-20T12:30:03.946Z,18.27
2022-09-20T12:34:36.648Z,18.60
2022-09-20T12:38:47.171Z,18.90
2022-09-20T12:42:58.106Z,19.24
2022-09-20T12:47:06.918Z,19.55
2022-09-20T12:51:40.995Z,19.84
2022-09-20T12:55:53.491Z,19.99
2022-09-20T12:59:59.128Z,19.89
2022-09-20T13:04:40.943Z,19.64
2022-09-20T13:08:49.519Z,19.41
2022-09-20T13:12:57.860Z,19.38
2022-09-20T13:17:04.768Z,19.59
2022-09-20T13:21:09.559Z,19.89
2022-09-20T13:25:16.534Z,20.18
2022-09-20T13:29:27.941Z,20.33
2022-09-20T13:33:31.427Z,20.42
2022-09-20T13:37:35.983Z,20.53
2022-09-20T13:41:40.928Z,20.59
2022-09-20T13:45:45.627Z,20.59
2022-09-20T13:49:49.747Z,20.54
2022-09-20T13:53:52.998Z,20.38
2022-09-20T13:58:01.957Z,20.21
2022-09-20T14:02:05.989Z,19.95
2022-09-20T14:06:16.642Z,19.67
2022-09-20T14:10:33.085Z,19.29
2022-09-20T14:14:38.530Z,18.89
2022-09-20T14:18:43.040Z,18.46
2022-09-20T14:22:47.097Z,17.87
2022-09-20T14:27:02.684Z,17.34
2022-09-20T14:31:15.019Z,16.97
2022-09-20T14:35:20.482Z,16.69
2022-09-20T14:39:24.112Z,16.62
2022-09-20T14:43:32.040Z,16.51
2022-09-20T14:47:41.377Z,16.63
2022-09-20T14:51:46.015Z,16.60
2022-09-20T14:56:10.558Z,16.76
2022-09-20T15:00:16.453Z,16.69
2022-09-20T15:04:22.794Z,16.51
2022-09-20T15:08:26.706Z,16.43
2022-09-20T15:12:30.954Z,16.39
2022-09-20T15:16:35.080Z,16.50
2022-09-20T15:20:40.139Z,16.76
2022-09-20T15:24:44.797Z,16.90
2022-09-20T15:28:48.840Z,16.96
2022-09-20T15:32:53.656Z,16.93
2022-09-20T15:36:59.033Z,16.77
2022-09-20T15:41:04.815Z,16.59
2022-09-20T15:45:10.254Z,16.34
2022-09-20T15:49:14.093Z,16.05
2022-09-20T15:53:18.600Z,15.82
2022-09-20T15:57:22.340Z,15.63
2022-09-20T16:01:26.300Z,15.57
2022-09-20T16:05:29.796Z,15.44
2022-09-20T16:09:36.132Z,15.39
2022-09-20T16:13:39.658Z,15.29
2022-09-20T16:18:00.678Z,15.18
2022-09-20T16:22:04.127Z,15.09
2022-09-20T16:26:13.168Z,15.03
2022-09-20T16:30:16.979Z,14.95
2022-09-20T16:34:22.317Z,14.91
2022-09-20T16:38:25.376Z,14.87
2022-09-20T16:42:30.333Z,14.85
2022-09-20T16:46:37.370Z,14.82
2022-09-20T16:50:40.899Z,14.84
2022-09-20T16:54:44.033Z,14.81
2022-09-20T16:58:49.302Z,14.78
2022-09-20T17:02:53.501Z,14.71
2022-09-20T17:06:56.513Z,14.66
2022-09-20T17:11:03.737Z,14.54
2022-09-20T17:15:12.274Z,14.47
2022-09-20T17:19:18.499Z,14.37
2022-09-20T17:23:22.224Z,14.29
2022-09-20T17:27:25.875Z,14.20
2022-09-20T17:31:33.815Z,14.14
2022-09-20T17:35:37.400Z,14.08
2022-09-20T17:39:41.737Z,14.03
2022-09-20T17:43:46.822Z,13.99
2022-09-20T17:47:52.173Z,13.98
2022-09-20T17:51:58.248Z,13.95
2022-09-20T17:56:02.512Z,13.95
2022-09-20T18:00:06.819Z,13.94
2022-09-20T18:04:12.608Z,13.94
2022-09-20T18:08:17.087Z,13.91
2022-09-20T18:12:21.549Z,13.90
2022-09-20T18:16:25.665Z,13.88
2022-09-20T18:20:30.445Z,13.86
2022-09-20T18:24:34.056Z,13.82
2022-09-20T18:28:37.557Z,13.77
2022-09-20T18:32:44.495Z,13.69
2022-09-20T18:36:54.807Z,13.57
2022-09-20T18:41:00.954Z,13.42
2022-09-20T18:45:04.566Z,13.26
2022-09-20T18:49:10.859Z,13.09
2022-09-20T18:53:15.787Z,12.93
2022-09-20T18:57:19.879Z,12.79
2022-09-20T19:02:02.505Z,12.70
2022-09-20T19:06:12.051Z,12.64
2022-09-20T19:10:24.997Z,12.62
2022-09-20T19:14:31.692Z,12.64
2022-09-20T19:18:57.143Z,12.66
2022-09-20T19:23:13.418Z,12.68
2022-09-20T19:27:19.015Z,12.70
2022-09-20T19:31:27.363Z,12.73
2022-09-20T19:35:38.748Z,12.74
2022-09-20T19:39:58.868Z,12.74
2022-09-20T19:44:18.512Z,12.74
2022-09-20T19:48:30.904Z,12.70
2022-09-20T19:52:34.771Z,12.64
2022-09-20T19:56:48.903Z,12.58
2022-09-20T20:00:54.144Z,12.49
2022-09-20T20:04:58.604Z,12.39
2022-09-20T20:09:09.982Z,12.29
2022-09-20T20:13:37.902Z,12.19
2022-09-20T20:17:53.939Z,12.11
2022-09-20T20:22:00.567Z,12.04
2022-09-20T20:26:09.373Z,11.96
2022-09-20T20:30:13.449Z,11.87
2022-09-20T20:34:17.928Z,11.81
2022-09-20T20:38:22.918Z,11.76
2022-09-20T20:42:27.983Z,11.72
2022-09-20T20:46:32.719Z,11.71
2022-09-20T20:50:37.856Z,11.73
2022-09-20T20:54:41.317Z,11.74
2022-09-20T20:58:45.551Z,11.74
2022-09-20T21:02:50.024Z,11.77
2022-09-20T21:06:54.968Z,11.76
2022-09-20T21:11:02.282Z,11.75
2022-09-20T21:15:07.046Z,11.74
2022-09-20T21:19:15.265Z,11.75
2022-09-20T21:23:19.697Z,11.80
2022-09-20T21:27:23.270Z,11.81
2022-09-20T21:31:27.827Z,11.85
2022-09-20T21:35:31.347Z,11.90
2022-09-20T21:39:36.195Z,11.97
2022-09-20T21:43:42.057Z,12.01
2022-09-20T21:47:50.260Z,12.06
2022-09-20T21:51:54.003Z,12.09
2022-09-20T21:55:59.725Z,12.15
2022-09-20T22:00:03.409Z,12.16
2022-09-20T22:04:08.259Z,12.17
2022-09-20T22:08:11.496Z,12.17
2022-09-20T22:12:17.573Z,12.18
2022-09-20T22:16:23.531Z,12.17
2022-09-20T22:20:26.676Z,12.16
2022-09-20T22:24:30.510Z,12.14
2022-09-20T22:28:37.182Z,12.13
2022-09-20T22:32:40.851Z,12.11
2022-09-20T22:36:44.876Z,12.09
2022-09-20T22:40:58.488Z,12.06
2022-09-20T22:45:02.990Z,12.07
2022-09-20T22:49:07.170Z,12.05
2022-09-20T22:53:10.670Z,12.05
2022-09-20T22:57:13.994Z,12.07
2022-09-20T23:01:23.083Z,12.07
2022-09-20T23:05:26.493Z,12.09
2022-09-20T23:09:29.841Z,12.09
2022-09-20T23:13:33.299Z,12.10
2022-09-20T23:17:38.215Z,12.12
2022-09-20T23:21:42.968Z,12.13
2022-09-20T23:25:47.139Z,12.13
2022-09-20T23:29:50.285Z,12.13
2022-09-20T23:33:56.846Z,12.15
2022-09-20T23:37:59.925Z,12.13
2022-09-20T23:42:03.382Z,12.11
2022-09-20T23:46:07.715Z,12.09
2022-09-20T23:50:12.711Z,12.08
2022-09-20T23:54:15.857Z,12.06
2022-09-20T23:58:19.425Z,12.04
